Wadowice II — C6XW7 — position and weather

sailwx.info

Track history (hours):
 
Tides and Currents Weather Stations Pressure Air Temp Water Temp Dewpoint Dewpoint Depression Visibility Wind Speed Wind Dir Waves Ship Positions

Wadowice II

Last reported at 2018-Feb-11 18:08 UTC. Time now 2018-Feb-22 21:07 UTC.
Position N 09°11' W 079°52'.
Warning: this ship's position is 11 days out of date.

Length 188 m; draft 9.5 m.

Type: Ship (hazmat cat C). MMSI: 311024300.

Date/timePositionNaut miles runAvg speedWind from/ knotsBaromVisibWave heightAir tempDewpointWater temp
2018-Feb-11 18:08N 09°11' W 079°52'1 9.9
2018-Feb-11 18:00N 09°11' W 079°53'4 7.5
2018-Feb-11 17:30N 09°14' W 079°55'1 2.4
2018-Feb-11 17:00N 09°15' W 079°55'1 1.5
2018-Feb-11 16:30N 09°16' W 079°55'0 0.7
2018-Feb-11 16:00N 09°16' W 079°55'0 0.5
2018-Feb-11 15:30N 09°17' W 079°55'0 0.3
2018-Feb-11 14:59N 09°17' W 079°55'1 1.6
2018-Feb-11 14:30N 09°18' W 079°55'4 7.2
2018-Feb-11 14:00N 09°21' W 079°55'2 3.4
2018-Feb-11 13:30N 09°23' W 079°56'0 0.1
2018-Feb-11 12:59N 09°23' W 079°56'0 0.0
2018-Feb-11 12:29N 09°23' W 079°56'0 0.0
2018-Feb-11 12:00N 09°23' W 079°56'0 0.0
2018-Feb-11 11:30N 09°23' W 079°56'0 0.0
2018-Feb-11 10:59N 09°23' W 079°56'0 0.1
2018-Feb-11 10:30N 09°23' W 079°56'0 0.0
2018-Feb-11 09:59N 09°23' W 079°56'0 0.1
2018-Feb-11 09:29N 09°23' W 079°56'0 0.0
2018-Feb-11 08:59N 09°23' W 079°56'0 0.0
2018-Feb-11 08:29N 09°23' W 079°56'0 0.0
2018-Feb-11 08:00N 09°23' W 079°56'0 0.0
2018-Feb-11 07:29N 09°23' W 079°56'0 0.0
2018-Feb-11 07:00N 09°23' W 079°56'0 0.0
2018-Feb-11 06:29N 09°23' W 079°56'0 0.0
2018-Feb-11 05:59N 09°23' W 079°56'0 0.0
2018-Feb-11 05:29N 09°23' W 079°56'0 0.0
2018-Feb-11 04:59N 09°23' W 079°56'0 0.1
2018-Feb-11 04:29N 09°23' W 079°56'0 0.0
2018-Feb-11 03:59N 09°23' W 079°56'0 0.0
2018-Feb-11 03:29N 09°23' W 079°56'0 0.0
2018-Feb-11 03:00N 09°23' W 079°56'0 0.0
2018-Feb-11 02:29N 09°23' W 079°56'0 0.1
2018-Feb-11 01:59N 09°23' W 079°56'0 0.3
2018-Feb-11 01:30N 09°23' W 079°56'1 2.2
2018-Feb-11 00:59N 09°24' W 079°55'2 3.7
2018-Feb-11 00:29N 09°26' W 079°56'0 0.7
2018-Feb-11 00:00N 09°26' W 079°56'0 0.0
2018-Feb-10 23:27N 09°26' W 079°56'0 0.0
2018-Feb-10 23:00N 09°26' W 079°56'0 0.0
2018-Feb-10 22:30N 09°26' W 079°56'0 0.0
2018-Feb-10 22:00N 09°26' W 079°56'0 0.0
2018-Feb-10 21:30N 09°26' W 079°56'0 0.0
2018-Feb-10 21:00N 09°26' W 079°56'0 0.0
2018-Feb-10 20:30N 09°26' W 079°56'0 0.0
2018-Feb-10 20:00N 09°26' W 079°56'0 0.0
2018-Feb-10 19:30N 09°26' W 079°56'0 0.0
2018-Feb-10 19:00N 09°26' W 079°56'0 0.0
2018-Feb-10 18:30N 09°26' W 079°56'0 0.0
2018-Feb-10 18:00N 09°26' W 079°56'0 0.0
2018-Feb-10 17:30N 09°26' W 079°56'0 0.0
2018-Feb-10 17:00N 09°26' W 079°56'0 0.0
2018-Feb-10 16:30N 09°26' W 079°56'0 0.0
2018-Feb-10 16:00N 09°26' W 079°56'0 0.0
2018-Feb-10 15:30N 09°26' W 079°56'0 0.0
2018-Feb-10 15:00N 09°26' W 079°56'0 0.0
2018-Feb-10 14:30N 09°26' W 079°56'0 0.0
2018-Feb-10 13:59N 09°26' W 079°56'0 0.0
2018-Feb-10 13:29N 09°26' W 079°56'0 0.0
2018-Feb-10 12:53N 09°26' W 079°56'0 0.0
2018-Feb-10 12:29N 09°26' W 079°56'0 0.0
2018-Feb-10 11:59N 09°26' W 079°56'0 0.0
2018-Feb-10 11:29N 09°26' W 079°56'0 0.0
2018-Feb-10 10:59N 09°26' W 079°56'0 0.0
2018-Feb-10 10:29N 09°26' W 079°56'0 0.0
2018-Feb-10 09:59N 09°26' W 079°56'0 0.0
2018-Feb-10 09:29N 09°26' W 079°56'0 0.0
2018-Feb-10 08:59N 09°26' W 079°56'0 0.0
2018-Feb-10 08:29N 09°26' W 079°56'0 0.1
2018-Feb-10 07:59N 09°26' W 079°56'0 0.1
2018-Feb-10 07:29N 09°26' W 079°56'0 0.1
2018-Feb-10 06:59N 09°26' W 079°56'0 0.0
2018-Feb-10 06:29N 09°26' W 079°56'0 0.0
2018-Feb-10 05:59N 09°26' W 079°56'0 0.0
2018-Feb-10 05:29N 09°26' W 079°56'0 0.0
2018-Feb-10 04:59N 09°26' W 079°56'0 0.0
2018-Feb-10 04:29N 09°26' W 079°56'0 0.0
2018-Feb-10 03:53N 09°26' W 079°56'0 0.0
2018-Feb-10 03:29N 09°26' W 079°56'0 0.0
2018-Feb-10 02:59N 09°26' W 079°56'0 0.0
2018-Feb-10 02:29N 09°26' W 079°56'0 0.0
2018-Feb-10 01:59N 09°26' W 079°56'0 0.0
2018-Feb-10 01:29N 09°26' W 079°56'0 0.0
2018-Feb-10 00:59N 09°26' W 079°56'0 0.0
2018-Feb-10 00:29N 09°26' W 079°56'0 0.0
2018-Feb-09 23:59N 09°26' W 079°56'0 0.0
2018-Feb-09 23:29N 09°26' W 079°56'0 0.0
2018-Feb-09 22:59N 09°26' W 079°56'0 0.0
2018-Feb-09 22:44N 09°26' W 079°56'0 0.1
2018-Feb-09 20:30N 09°26' W 079°56'2 4.4
2018-Feb-09 20:01N 09°28' W 079°55'3 6.1
2018-Feb-09 19:31N 09°31' W 079°54'  
Track history (hours):
 
Tides and Currents Weather Stations Pressure Air Temp Water Temp Dewpoint Dewpoint Depression Visibility Wind Speed Wind Dir Waves Ship Positions

Wadowice II

Last reported at 2018-Feb-11 18:08 UTC. Time now 2018-Feb-22 21:07 UTC.
Position N 09°11' W 079°52'.
Warning: this ship's position is 11 days out of date.

Length 188 m; draft 9.5 m.

Type: Ship (hazmat cat C). MMSI: 311024300.

Date/timePositionNaut miles runAvg speedWind from/ knotsBaromVisibWave heightAir tempDewpointWater temp
2018-Feb-11 18:08N 09°11' W 079°52'1 9.9
2018-Feb-11 18:00N 09°11' W 079°53'4 7.5
2018-Feb-11 17:30N 09°14' W 079°55'1 2.4
2018-Feb-11 17:00N 09°15' W 079°55'1 1.5
2018-Feb-11 16:30N 09°16' W 079°55'0 0.7
2018-Feb-11 16:00N 09°16' W 079°55'0 0.5
2018-Feb-11 15:30N 09°17' W 079°55'0 0.3
2018-Feb-11 14:59N 09°17' W 079°55'1 1.6
2018-Feb-11 14:30N 09°18' W 079°55'4 7.2
2018-Feb-11 14:00N 09°21' W 079°55'2 3.4
2018-Feb-11 13:30N 09°23' W 079°56'0 0.1
2018-Feb-11 12:59N 09°23' W 079°56'0 0.0
2018-Feb-11 12:29N 09°23' W 079°56'0 0.0
2018-Feb-11 12:00N 09°23' W 079°56'0 0.0
2018-Feb-11 11:30N 09°23' W 079°56'0 0.0
2018-Feb-11 10:59N 09°23' W 079°56'0 0.1
2018-Feb-11 10:30N 09°23' W 079°56'0 0.0
2018-Feb-11 09:59N 09°23' W 079°56'0 0.1
2018-Feb-11 09:29N 09°23' W 079°56'0 0.0
2018-Feb-11 08:59N 09°23' W 079°56'0 0.0
2018-Feb-11 08:29N 09°23' W 079°56'0 0.0
2018-Feb-11 08:00N 09°23' W 079°56'0 0.0
2018-Feb-11 07:29N 09°23' W 079°56'0 0.0
2018-Feb-11 07:00N 09°23' W 079°56'0 0.0
2018-Feb-11 06:29N 09°23' W 079°56'0 0.0
2018-Feb-11 05:59N 09°23' W 079°56'0 0.0
2018-Feb-11 05:29N 09°23' W 079°56'0 0.0
2018-Feb-11 04:59N 09°23' W 079°56'0 0.1
2018-Feb-11 04:29N 09°23' W 079°56'0 0.0
2018-Feb-11 03:59N 09°23' W 079°56'0 0.0
2018-Feb-11 03:29N 09°23' W 079°56'0 0.0
2018-Feb-11 03:00N 09°23' W 079°56'0 0.0
2018-Feb-11 02:29N 09°23' W 079°56'0 0.1
2018-Feb-11 01:59N 09°23' W 079°56'0 0.3
2018-Feb-11 01:30N 09°23' W 079°56'1 2.2
2018-Feb-11 00:59N 09°24' W 079°55'2 3.7
2018-Feb-11 00:29N 09°26' W 079°56'0 0.7
2018-Feb-11 00:00N 09°26' W 079°56'0 0.0
2018-Feb-10 23:27N 09°26' W 079°56'0 0.0
2018-Feb-10 23:00N 09°26' W 079°56'0 0.0
2018-Feb-10 22:30N 09°26' W 079°56'0 0.0
2018-Feb-10 22:00N 09°26' W 079°56'0 0.0
2018-Feb-10 21:30N 09°26' W 079°56'0 0.0
2018-Feb-10 21:00N 09°26' W 079°56'0 0.0
2018-Feb-10 20:30N 09°26' W 079°56'0 0.0
2018-Feb-10 20:00N 09°26' W 079°56'0 0.0
2018-Feb-10 19:30N 09°26' W 079°56'0 0.0
2018-Feb-10 19:00N 09°26' W 079°56'0 0.0
2018-Feb-10 18:30N 09°26' W 079°56'0 0.0
2018-Feb-10 18:00N 09°26' W 079°56'0 0.0
2018-Feb-10 17:30N 09°26' W 079°56'0 0.0
2018-Feb-10 17:00N 09°26' W 079°56'0 0.0
2018-Feb-10 16:30N 09°26' W 079°56'0 0.0
2018-Feb-10 16:00N 09°26' W 079°56'0 0.0
2018-Feb-10 15:30N 09°26' W 079°56'0 0.0
2018-Feb-10 15:00N 09°26' W 079°56'0 0.0
2018-Feb-10 14:30N 09°26' W 079°56'0 0.0
2018-Feb-10 13:59N 09°26' W 079°56'0 0.0
2018-Feb-10 13:29N 09°26' W 079°56'0 0.0
2018-Feb-10 12:53N 09°26' W 079°56'0 0.0
2018-Feb-10 12:29N 09°26' W 079°56'0 0.0
2018-Feb-10 11:59N 09°26' W 079°56'0 0.0
2018-Feb-10 11:29N 09°26' W 079°56'0 0.0
2018-Feb-10 10:59N 09°26' W 079°56'0 0.0
2018-Feb-10 10:29N 09°26' W 079°56'0 0.0
2018-Feb-10 09:59N 09°26' W 079°56'0 0.0
2018-Feb-10 09:29N 09°26' W 079°56'0 0.0
2018-Feb-10 08:59N 09°26' W 079°56'0 0.0
2018-Feb-10 08:29N 09°26' W 079°56'0 0.1
2018-Feb-10 07:59N 09°26' W 079°56'0 0.1
2018-Feb-10 07:29N 09°26' W 079°56'0 0.1
2018-Feb-10 06:59N 09°26' W 079°56'0 0.0
2018-Feb-10 06:29N 09°26' W 079°56'0 0.0
2018-Feb-10 05:59N 09°26' W 079°56'0 0.0
2018-Feb-10 05:29N 09°26' W 079°56'0 0.0
2018-Feb-10 04:59N 09°26' W 079°56'0 0.0
2018-Feb-10 04:29N 09°26' W 079°56'0 0.0
2018-Feb-10 03:53N 09°26' W 079°56'0 0.0
2018-Feb-10 03:29N 09°26' W 079°56'0 0.0
2018-Feb-10 02:59N 09°26' W 079°56'0 0.0
2018-Feb-10 02:29N 09°26' W 079°56'0 0.0
2018-Feb-10 01:59N 09°26' W 079°56'0 0.0
2018-Feb-10 01:29N 09°26' W 079°56'0 0.0
2018-Feb-10 00:59N 09°26' W 079°56'0 0.0
2018-Feb-10 00:29N 09°26' W 079°56'0 0.0
2018-Feb-09 23:59N 09°26' W 079°56'0 0.0
2018-Feb-09 23:29N 09°26' W 079°56'0 0.0
2018-Feb-09 22:59N 09°26' W 079°56'0 0.0
2018-Feb-09 22:44N 09°26' W 079°56'0 0.1
2018-Feb-09 20:30N 09°26' W 079°56'2 4.4
2018-Feb-09 20:01N 09°28' W 079°55'3 6.1
2018-Feb-09 19:31N 09°31' W 079°54'  

Dump ship's entire track history